sensor_id;sensor_type;location;lat;lon;timestamp;pressure;altitude;pressure_sealevel;temperature;humidity
59829;BME280;45708;51.848;107.620;2022-10-17T00:00:56;95915.59;;;-3.65;71.03
59829;BME280;45708;51.848;107.620;2022-10-17T00:05:57;95909.72;;;-1.45;65.83
59829;BME280;45708;51.848;107.620;2022-10-17T00:11:02;95903.53;;;-0.21;61.32
59829;BME280;45708;51.848;107.620;2022-10-17T00:16:04;95909.25;;;0.62;59.68
59829;BME280;45708;51.848;107.620;2022-10-17T00:21:05;95907.91;;;1.24;57.73
59829;BME280;45708;51.848;107.620;2022-10-17T00:26:06;95894.31;;;1.67;56.76
59829;BME280;45708;51.848;107.620;2022-10-17T00:31:07;95885.78;;;2.55;55.67
59829;BME280;45708;51.848;107.620;2022-10-17T00:36:11;95897.06;;;3.51;52.86
59829;BME280;45708;51.848;107.620;2022-10-17T00:41:14;95885.97;;;4.82;50.51
59829;BME280;45708;51.848;107.620;2022-10-17T00:46:15;95884.88;;;5.65;49.41
59829;BME280;45708;51.848;107.620;2022-10-17T00:51:18;95880.63;;;5.56;47.56
59829;BME280;45708;51.848;107.620;2022-10-17T00:56:20;95883.88;;;5.66;47.89
59829;BME280;45708;51.848;107.620;2022-10-17T01:01:21;95889.88;;;5.83;47.40
59829;BME280;45708;51.848;107.620;2022-10-17T01:06:22;95881.47;;;6.34;46.00
59829;BME280;45708;51.848;107.620;2022-10-17T01:22:11;95877.22;;;6.56;43.25
59829;BME280;45708;51.848;107.620;2022-10-17T01:38:19;95881.47;;;0.52;46.57
59829;BME280;45708;51.848;107.620;2022-10-17T01:43:27;95894.75;;;-1.42;52.78
59829;BME280;45708;51.848;107.620;2022-10-17T01:48:34;95894.56;;;-2.25;55.55
59829;BME280;45708;51.848;107.620;2022-10-17T01:53:46;95887.09;;;-2.84;57.27
59829;BME280;45708;51.848;107.620;2022-10-17T01:58:54;95887.34;;;-2.65;57.75
59829;BME280;45708;51.848;107.620;2022-10-17T02:03:58;95877.69;;;-2.52;57.70
59829;BME280;45708;51.848;107.620;2022-10-17T02:09:00;95877.00;;;-2.65;57.86
59829;BME280;45708;51.848;107.620;2022-10-17T02:14:12;95868.84;;;-2.38;58.36
59829;BME280;45708;51.848;107.620;2022-10-17T02:24:53;95867.81;;;-2.03;57.89
59829;BME280;45708;51.848;107.620;2022-10-17T02:30:30;95859.91;;;-1.70;58.63
59829;BME280;45708;51.848;107.620;2022-10-17T02:35:36;95849.25;;;-1.76;57.83
59829;BME280;45708;51.848;107.620;2022-10-17T02:40:38;95846.84;;;-1.68;58.07
59829;BME280;45708;51.848;107.620;2022-10-17T02:45:40;95844.63;;;-1.52;58.07
59829;BME280;45708;51.848;107.620;2022-10-17T02:50:43;95838.38;;;-1.29;57.79
59829;BME280;45708;51.848;107.620;2022-10-17T02:55:52;95825.63;;;-1.11;57.19
59829;BME280;45708;51.848;107.620;2022-10-17T03:00:56;95812.53;;;-0.79;56.99
59829;BME280;45708;51.848;107.620;2022-10-17T03:05:57;95808.25;;;-0.49;56.46
59829;BME280;45708;51.848;107.620;2022-10-17T03:10:58;95800.22;;;-0.08;55.68
59829;BME280;45708;51.848;107.620;2022-10-17T03:15:59;95786.00;;;-0.04;55.51
59829;BME280;45708;51.848;107.620;2022-10-17T03:21:00;95782.16;;;0.29;54.95
59829;BME280;45708;51.848;107.620;2022-10-17T03:26:05;95778.69;;;0.68;54.04
59829;BME280;45708;51.848;107.620;2022-10-17T03:31:11;95732.16;;;0.65;53.00
59829;BME280;45708;51.848;107.620;2022-10-17T03:36:15;95757.59;;;1.08;52.77
59829;BME280;45708;51.848;107.620;2022-10-17T03:41:16;95752.88;;;1.39;51.80
59829;BME280;45708;51.848;107.620;2022-10-17T03:46:17;95737.81;;;1.60;51.49
59829;BME280;45708;51.848;107.620;2022-10-17T03:51:18;95739.34;;;1.80;49.12
59829;BME280;45708;51.848;107.620;2022-10-17T03:56:21;95731.38;;;1.82;48.77
59829;BME280;45708;51.848;107.620;2022-10-17T04:01:23;95723.25;;;2.03;49.40
59829;BME280;45708;51.848;107.620;2022-10-17T04:06:24;95714.44;;;2.22;48.62
59829;BME280;45708;51.848;107.620;2022-10-17T04:11:25;95719.38;;;2.33;47.91
59829;BME280;45708;51.848;107.620;2022-10-17T04:16:26;95708.13;;;2.32;47.83
59829;BME280;45708;51.848;107.620;2022-10-17T04:21:28;95690.03;;;2.57;47.40
59829;BME280;45708;51.848;107.620;2022-10-17T04:26:29;95679.28;;;2.60;47.44
59829;BME280;45708;51.848;107.620;2022-10-17T04:31:29;95670.50;;;2.61;46.57
59829;BME280;45708;51.848;107.620;2022-10-17T04:36:30;95664.97;;;2.64;46.70
59829;BME280;45708;51.848;107.620;2022-10-17T04:41:31;95655.88;;;2.68;45.67
59829;BME280;45708;51.848;107.620;2022-10-17T04:46:33;95656.44;;;2.88;45.10
59829;BME280;45708;51.848;107.620;2022-10-17T04:51:34;95640.03;;;3.03;45.80
59829;BME280;45708;51.848;107.620;2022-10-17T04:56:35;95639.09;;;3.29;45.54
59829;BME280;45708;51.848;107.620;2022-10-17T05:01:36;95616.94;;;3.41;45.46
59829;BME280;45708;51.848;107.620;2022-10-17T05:06:37;95615.97;;;3.66;44.92
59829;BME280;45708;51.848;107.620;2022-10-17T05:11:37;95617.25;;;3.95;44.96
59829;BME280;45708;51.848;107.620;2022-10-17T05:16:38;95603.13;;;4.20;44.64
59829;BME280;45708;51.848;107.620;2022-10-17T05:21:39;95593.34;;;4.14;43.81
59829;BME280;45708;51.848;107.620;2022-10-17T05:26:40;95586.50;;;4.13;43.13
59829;BME280;45708;51.848;107.620;2022-10-17T05:31:41;95577.03;;;4.12;43.54
59829;BME280;45708;51.848;107.620;2022-10-17T05:36:42;95580.88;;;4.33;42.69
59829;BME280;45708;51.848;107.620;2022-10-17T05:41:43;95572.41;;;4.31;42.55
59829;BME280;45708;51.848;107.620;2022-10-17T05:46:43;95569.91;;;4.45;42.75
59829;BME280;45708;51.848;107.620;2022-10-17T05:51:44;95552.53;;;4.61;43.09
59829;BME280;45708;51.848;107.620;2022-10-17T05:56:49;95554.66;;;4.88;42.34
59829;BME280;45708;51.848;107.620;2022-10-17T06:01:51;95538.06;;;4.96;41.93
59829;BME280;45708;51.848;107.620;2022-10-17T06:06:52;95530.13;;;4.89;41.33
59829;BME280;45708;51.848;107.620;2022-10-17T06:11:53;95522.56;;;4.94;42.00
59829;BME280;45708;51.848;107.620;2022-10-17T06:16:54;95515.75;;;5.08;41.38
59829;BME280;45708;51.848;107.620;2022-10-17T06:21:55;95502.91;;;5.21;41.63
59829;BME280;45708;51.848;107.620;2022-10-17T06:26:55;95489.97;;;5.42;40.43
59829;BME280;45708;51.848;107.620;2022-10-17T06:31:56;95489.03;;;5.35;40.77
59829;BME280;45708;51.848;107.620;2022-10-17T06:36:57;95473.94;;;5.37;40.43
59829;BME280;45708;51.848;107.620;2022-10-17T06:42:02;95463.50;;;5.52;39.86
59829;BME280;45708;51.848;107.620;2022-10-17T06:47:03;95459.44;;;5.49;40.11
59829;BME280;45708;51.848;107.620;2022-10-17T06:52:04;95455.28;;;5.70;40.53
59829;BME280;45708;51.848;107.620;2022-10-17T06:57:05;95453.75;;;5.75;39.95
59829;BME280;45708;51.848;107.620;2022-10-17T07:02:07;95444.28;;;5.89;39.51
59829;BME280;45708;51.848;107.620;2022-10-17T07:07:08;95427.84;;;5.95;39.96
59829;BME280;45708;51.848;107.620;2022-10-17T07:12:09;95426.28;;;6.16;39.46
59829;BME280;45708;51.848;107.620;2022-10-17T07:17:09;95411.66;;;6.21;39.08
59829;BME280;45708;51.848;107.620;2022-10-17T07:22:11;95413.72;;;6.26;38.56
59829;BME280;45708;51.848;107.620;2022-10-17T07:27:13;95404.84;;;6.27;38.48
59829;BME280;45708;51.848;107.620;2022-10-17T07:32:14;95401.22;;;6.28;38.89
59829;BME280;45708;51.848;107.620;2022-10-17T07:37:15;95386.88;;;6.45;38.77
59829;BME280;45708;51.848;107.620;2022-10-17T07:42:16;95389.75;;;6.50;38.15
59829;BME280;45708;51.848;107.620;2022-10-17T07:47:17;95376.31;;;6.60;37.96
59829;BME280;45708;51.848;107.620;2022-10-17T07:52:17;95373.00;;;6.72;38.30
59829;BME280;45708;51.848;107.620;2022-10-17T07:57:18;95363.50;;;6.71;37.93
59829;BME280;45708;51.848;107.620;2022-10-17T08:02:24;95368.16;;;6.69;36.80
59829;BME280;45708;51.848;107.620;2022-10-17T08:07:26;95359.50;;;6.76;36.75
59829;BME280;45708;51.848;107.620;2022-10-17T08:12:27;95349.91;;;6.61;37.16
59829;BME280;45708;51.848;107.620;2022-10-17T08:17:28;95345.63;;;6.60;36.05
59829;BME280;45708;51.848;107.620;2022-10-17T08:22:32;95340.06;;;6.70;36.99
59829;BME280;45708;51.848;107.620;2022-10-17T08:27:33;95335.44;;;6.72;36.30
59829;BME280;45708;51.848;107.620;2022-10-17T08:32:33;95343.13;;;6.52;35.05
59829;BME280;45708;51.848;107.620;2022-10-17T08:37:34;95340.91;;;6.49;36.66
59829;BME280;45708;51.848;107.620;2022-10-17T08:48:01;95325.44;;;6.39;36.27
59829;BME280;45708;51.848;107.620;2022-10-17T08:53:16;95323.38;;;6.35;36.71
59829;BME280;45708;51.848;107.620;2022-10-17T08:58:26;95329.53;;;6.21;36.56
59829;BME280;45708;51.848;107.620;2022-10-17T09:03:46;95317.81;;;6.02;37.08
59829;BME280;45708;51.848;107.620;2022-10-17T09:23:59;95296.97;;;5.49;37.32
59829;BME280;45708;51.848;107.620;2022-10-17T09:29:02;95303.88;;;5.21;38.10
59829;BME280;45708;51.848;107.620;2022-10-17T09:34:10;95294.97;;;4.93;38.11
59829;BME280;45708;51.848;107.620;2022-10-17T09:39:13;95294.94;;;4.63;38.26
59829;BME280;45708;51.848;107.620;2022-10-17T09:49:38;95275.31;;;3.98;39.33
59829;BME280;45708;51.848;107.620;2022-10-17T09:55:10;95290.31;;;3.74;39.82
59829;BME280;45708;51.848;107.620;2022-10-17T10:00:06;95288.19;;;3.38;40.44
59829;BME280;45708;51.848;107.620;2022-10-17T10:05:18;95284.06;;;3.13;40.61
59829;BME280;45708;51.848;107.620;2022-10-17T10:10:24;95276.75;;;3.00;40.70
59829;BME280;45708;51.848;107.620;2022-10-17T10:15:35;95266.22;;;2.85;41.02
59829;BME280;45708;51.848;107.620;2022-10-17T10:20:36;95270.44;;;2.78;40.88
59829;BME280;45708;51.848;107.620;2022-10-17T10:25:38;95271.75;;;2.82;40.83
59829;BME280;45708;51.848;107.620;2022-10-17T10:30:50;95266.03;;;2.79;41.16
59829;BME280;45708;51.848;107.620;2022-10-17T10:36:10;95261.72;;;2.47;41.47
59829;BME280;45708;51.848;107.620;2022-10-17T10:41:11;95262.19;;;2.18;42.18
59829;BME280;45708;51.848;107.620;2022-10-17T10:46:23;95263.16;;;1.92;42.72
59829;BME280;45708;51.848;107.620;2022-10-17T10:56:43;95266.44;;;1.86;42.22
59829;BME280;45708;51.848;107.620;2022-10-17T11:07:23;95262.97;;;1.77;43.15
59829;BME280;45708;51.848;107.620;2022-10-17T11:12:51;95257.16;;;1.83;43.15
59829;BME280;45708;51.848;107.620;2022-10-17T11:17:58;95254.03;;;1.72;42.90
59829;BME280;45708;51.848;107.620;2022-10-17T11:23:09;95252.25;;;1.80;42.72
59829;BME280;45708;51.848;107.620;2022-10-17T11:28:19;95252.84;;;1.42;43.82
59829;BME280;45708;51.848;107.620;2022-10-17T11:44:05;95234.06;;;0.54;45.75
59829;BME280;45708;51.848;107.620;2022-10-17T11:49:23;95233.47;;;0.34;45.87
59829;BME280;45708;51.848;107.620;2022-10-17T11:54:37;95232.84;;;0.14;46.61
59829;BME280;45708;51.848;107.620;2022-10-17T12:20:26;95214.84;;;-0.23;47.60
59829;BME280;45708;51.848;107.620;2022-10-17T12:25:30;95213.06;;;-0.40;48.32
59829;BME280;45708;51.848;107.620;2022-10-17T12:30:32;95205.88;;;-0.64;48.83
59829;BME280;45708;51.848;107.620;2022-10-17T12:35:36;95199.06;;;-0.65;49.25
59829;BME280;45708;51.848;107.620;2022-10-17T12:45:45;95202.75;;;-0.85;49.84
59829;BME280;45708;51.848;107.620;2022-10-17T12:51:01;95180.78;;;-1.09;50.27
59829;BME280;45708;51.848;107.620;2022-10-17T12:56:03;95198.28;;;-1.20;49.78
59829;BME280;45708;51.848;107.620;2022-10-17T13:01:04;95179.19;;;-1.37;50.45
59829;BME280;45708;51.848;107.620;2022-10-17T13:06:06;95181.78;;;-1.47;53.58
59829;BME280;45708;51.848;107.620;2022-10-17T13:11:07;95179.59;;;-1.42;52.91
59829;BME280;45708;51.848;107.620;2022-10-17T13:16:36;95179.84;;;-1.35;54.01
59829;BME280;45708;51.848;107.620;2022-10-17T13:21:37;95176.59;;;-1.37;54.63
59829;BME280;45708;51.848;107.620;2022-10-17T13:26:44;95163.81;;;-1.48;55.35
59829;BME280;45708;51.848;107.620;2022-10-17T13:32:08;95161.94;;;-1.56;55.68
59829;BME280;45708;51.848;107.620;2022-10-17T13:37:12;95155.50;;;-1.52;54.61
59829;BME280;45708;51.848;107.620;2022-10-17T13:42:26;95152.81;;;-1.60;55.13
59829;BME280;45708;51.848;107.620;2022-10-17T13:47:31;95148.31;;;-1.58;54.82
59829;BME280;45708;51.848;107.620;2022-10-17T13:52:33;95154.34;;;-1.67;55.03
59829;BME280;45708;51.848;107.620;2022-10-17T13:57:34;95154.91;;;-1.73;55.37
59829;BME280;45708;51.848;107.620;2022-10-17T14:02:35;95148.78;;;-1.72;55.39
59829;BME280;45708;51.848;107.620;2022-10-17T14:07:42;95145.91;;;-1.69;55.98
59829;BME280;45708;51.848;107.620;2022-10-17T14:12:44;95139.66;;;-1.76;56.07
59829;BME280;45708;51.848;107.620;2022-10-17T14:17:45;95133.97;;;-1.90;57.16
59829;BME280;45708;51.848;107.620;2022-10-17T14:22:54;95133.69;;;-1.87;56.72
59829;BME280;45708;51.848;107.620;2022-10-17T14:33:26;95129.66;;;-1.99;57.47
59829;BME280;45708;51.848;107.620;2022-10-17T14:38:28;95123.69;;;-2.09;57.19
59829;BME280;45708;51.848;107.620;2022-10-17T14:43:30;95114.72;;;-2.15;57.26
59829;BME280;45708;51.848;107.620;2022-10-17T14:48:32;95108.22;;;-2.28;57.96
59829;BME280;45708;51.848;107.620;2022-10-17T14:53:33;95107.63;;;-2.22;57.70
59829;BME280;45708;51.848;107.620;2022-10-17T14:58:34;95107.16;;;-2.45;58.72
59829;BME280;45708;51.848;107.620;2022-10-17T15:03:35;95116.84;;;-2.86;59.85
59829;BME280;45708;51.848;107.620;2022-10-17T15:08:36;95107.75;;;-3.19;60.70
59829;BME280;45708;51.848;107.620;2022-10-17T15:13:37;95112.53;;;-3.64;62.33
59829;BME280;45708;51.848;107.620;2022-10-17T15:18:38;95111.34;;;-4.00;63.52
59829;BME280;45708;51.848;107.620;2022-10-17T15:23:39;95113.31;;;-4.13;62.94
59829;BME280;45708;51.848;107.620;2022-10-17T15:28:40;95114.06;;;-4.22;64.30
59829;BME280;45708;51.848;107.620;2022-10-17T15:33:41;95108.38;;;-3.95;64.62
59829;BME280;45708;51.848;107.620;2022-10-17T15:38:43;95106.75;;;-3.87;64.22
59829;BME280;45708;51.848;107.620;2022-10-17T15:43:44;95099.34;;;-4.11;64.28
59829;BME280;45708;51.848;107.620;2022-10-17T15:48:46;95100.31;;;-4.33;64.75
59829;BME280;45708;51.848;107.620;2022-10-17T15:53:47;95085.06;;;-4.45;65.01
59829;BME280;45708;51.848;107.620;2022-10-17T15:58:48;95087.59;;;-4.24;65.14
59829;BME280;45708;51.848;107.620;2022-10-17T16:03:49;95085.38;;;-4.39;65.42
59829;BME280;45708;51.848;107.620;2022-10-17T16:08:50;95081.66;;;-4.46;65.76
59829;BME280;45708;51.848;107.620;2022-10-17T16:13:53;95078.13;;;-4.45;65.77
59829;BME280;45708;51.848;107.620;2022-10-17T16:18:55;95072.84;;;-4.43;65.99
59829;BME280;45708;51.848;107.620;2022-10-17T16:23:56;95072.72;;;-4.42;65.22
59829;BME280;45708;51.848;107.620;2022-10-17T16:28:57;95069.38;;;-4.33;65.01
59829;BME280;45708;51.848;107.620;2022-10-17T16:33:59;95069.13;;;-4.30;64.99
59829;BME280;45708;51.848;107.620;2022-10-17T16:39:00;95068.00;;;-4.37;65.06
59829;BME280;45708;51.848;107.620;2022-10-17T16:44:04;95054.44;;;-4.39;64.15
59829;BME280;45708;51.848;107.620;2022-10-17T16:49:06;95042.56;;;-4.51;64.62
59829;BME280;45708;51.848;107.620;2022-10-17T16:54:07;95047.78;;;-4.62;65.70
59829;BME280;45708;51.848;107.620;2022-10-17T16:59:09;95039.88;;;-4.70;65.88
59829;BME280;45708;51.848;107.620;2022-10-17T17:04:10;95035.16;;;-4.86;66.30
59829;BME280;45708;51.848;107.620;2022-10-17T17:09:11;95025.09;;;-4.99;66.01
59829;BME280;45708;51.848;107.620;2022-10-17T17:14:12;95037.75;;;-5.07;67.00
59829;BME280;45708;51.848;107.620;2022-10-17T17:19:14;95049.75;;;-5.17;67.67
59829;BME280;45708;51.848;107.620;2022-10-17T17:24:19;95036.13;;;-5.08;67.00
59829;BME280;45708;51.848;107.620;2022-10-17T17:29:21;95034.50;;;-5.09;66.84
59829;BME280;45708;51.848;107.620;2022-10-17T17:34:22;95040.63;;;-5.21;67.26
59829;BME280;45708;51.848;107.620;2022-10-17T17:39:23;95038.84;;;-5.41;67.73
59829;BME280;45708;51.848;107.620;2022-10-17T17:44:24;95023.72;;;-5.56;68.69
59829;BME280;45708;51.848;107.620;2022-10-17T17:49:25;95028.53;;;-5.41;67.98
59829;BME280;45708;51.848;107.620;2022-10-17T17:54:25;95027.38;;;-5.37;67.89
59829;BME280;45708;51.848;107.620;2022-10-17T17:59:26;95000.94;;;-5.39;68.34
59829;BME280;45708;51.848;107.620;2022-10-17T18:04:27;95007.22;;;-5.32;68.59
59829;BME280;45708;51.848;107.620;2022-10-17T18:09:28;95004.56;;;-5.21;67.53
59829;BME280;45708;51.848;107.620;2022-10-17T18:14:29;94999.69;;;-5.24;67.25
59829;BME280;45708;51.848;107.620;2022-10-17T18:19:29;94985.63;;;-5.20;68.31
59829;BME280;45708;51.848;107.620;2022-10-17T18:24:30;94991.00;;;-5.23;68.42
59829;BME280;45708;51.848;107.620;2022-10-17T18:29:31;94989.88;;;-5.30;67.34
59829;BME280;45708;51.848;107.620;2022-10-17T18:34:32;94991.72;;;-5.74;69.14
59829;BME280;45708;51.848;107.620;2022-10-17T18:39:33;94980.28;;;-5.81;69.48
59829;BME280;45708;51.848;107.620;2022-10-17T18:44:34;94980.88;;;-5.77;69.69
59829;BME280;45708;51.848;107.620;2022-10-17T18:49:35;94986.44;;;-5.93;70.30
59829;BME280;45708;51.848;107.620;2022-10-17T18:54:36;94979.47;;;-6.14;71.42
59829;BME280;45708;51.848;107.620;2022-10-17T18:59:37;94988.81;;;-6.24;72.02
59829;BME280;45708;51.848;107.620;2022-10-17T19:04:38;94981.81;;;-6.22;70.89
59829;BME280;45708;51.848;107.620;2022-10-17T19:09:38;94982.63;;;-6.21;71.17
59829;BME280;45708;51.848;107.620;2022-10-17T19:14:39;94983.94;;;-6.16;70.14
59829;BME280;45708;51.848;107.620;2022-10-17T19:19:40;94974.47;;;-6.15;71.03
59829;BME280;45708;51.848;107.620;2022-10-17T19:24:41;94965.25;;;-6.29;71.93
59829;BME280;45708;51.848;107.620;2022-10-17T19:29:42;94981.25;;;-6.25;70.54
59829;BME280;45708;51.848;107.620;2022-10-17T19:34:43;94972.13;;;-6.29;70.92
59829;BME280;45708;51.848;107.620;2022-10-17T19:39:43;94961.78;;;-6.39;72.52
59829;BME280;45708;51.848;107.620;2022-10-17T19:44:44;94976.91;;;-6.25;70.58
59829;BME280;45708;51.848;107.620;2022-10-17T19:49:46;94953.00;;;-6.36;71.12
59829;BME280;45708;51.848;107.620;2022-10-17T19:54:47;94947.28;;;-6.40;72.63
59829;BME280;45708;51.848;107.620;2022-10-17T19:59:48;94975.53;;;-6.29;70.20
59829;BME280;45708;51.848;107.620;2022-10-17T20:04:48;94941.13;;;-6.71;72.44
59829;BME280;45708;51.848;107.620;2022-10-17T20:09:49;94946.03;;;-6.68;73.65
59829;BME280;45708;51.848;107.620;2022-10-17T20:14:50;94954.88;;;-6.61;71.24
59829;BME280;45708;51.848;107.620;2022-10-17T20:19:51;94937.75;;;-6.71;73.65
59829;BME280;45708;51.848;107.620;2022-10-17T20:24:52;94930.97;;;-6.72;72.91
59829;BME280;45708;51.848;107.620;2022-10-17T20:29:52;94923.50;;;-6.87;74.01
59829;BME280;45708;51.848;107.620;2022-10-17T20:34:53;94923.25;;;-6.84;73.73
59829;BME280;45708;51.848;107.620;2022-10-17T20:39:54;94918.38;;;-6.87;73.01
59829;BME280;45708;51.848;107.620;2022-10-17T20:44:55;94901.09;;;-6.85;73.91
59829;BME280;45708;51.848;107.620;2022-10-17T20:49:56;94909.03;;;-6.77;74.19
59829;BME280;45708;51.848;107.620;2022-10-17T20:54:57;94898.72;;;-6.65;73.70
59829;BME280;45708;51.848;107.620;2022-10-17T20:59:58;94893.34;;;-6.62;73.68
59829;BME280;45708;51.848;107.620;2022-10-17T21:04:58;94894.28;;;-6.52;73.17
59829;BME280;45708;51.848;107.620;2022-10-17T21:09:59;94883.06;;;-6.51;73.53
59829;BME280;45708;51.848;107.620;2022-10-17T21:15:00;94896.28;;;-6.56;72.95
59829;BME280;45708;51.848;107.620;2022-10-17T21:20:01;94880.03;;;-6.56;72.54
59829;BME280;45708;51.848;107.620;2022-10-17T21:25:02;94879.34;;;-6.69;74.16
59829;BME280;45708;51.848;107.620;2022-10-17T21:30:03;94878.66;;;-6.71;73.70
59829;BME280;45708;51.848;107.620;2022-10-17T21:35:04;94868.19;;;-6.91;73.28
59829;BME280;45708;51.848;107.620;2022-10-17T21:40:06;94880.81;;;-7.10;74.33
59829;BME280;45708;51.848;107.620;2022-10-17T21:45:07;94890.59;;;-7.04;72.81
59829;BME280;45708;51.848;107.620;2022-10-17T21:50:08;94874.59;;;-7.52;74.83
59829;BME280;45708;51.848;107.620;2022-10-17T21:55:09;94881.44;;;-7.64;74.84
59829;BME280;45708;51.848;107.620;2022-10-17T22:00:10;94884.72;;;-7.62;74.84
59829;BME280;45708;51.848;107.620;2022-10-17T22:05:11;94871.06;;;-7.62;75.22
59829;BME280;45708;51.848;107.620;2022-10-17T22:10:12;94882.22;;;-7.86;76.93
59829;BME280;45708;51.848;107.620;2022-10-17T22:15:13;94894.22;;;-7.98;77.28
59829;BME280;45708;51.848;107.620;2022-10-17T22:20:14;94881.56;;;-8.12;78.58
59829;BME280;45708;51.848;107.620;2022-10-17T22:25:15;94875.69;;;-8.25;78.10
59829;BME280;45708;51.848;107.620;2022-10-17T22:30:16;94871.25;;;-8.23;79.01
59829;BME280;45708;51.848;107.620;2022-10-17T22:35:17;94867.81;;;-8.11;78.90
59829;BME280;45708;51.848;107.620;2022-10-17T22:40:17;94858.75;;;-8.04;78.54
59829;BME280;45708;51.848;107.620;2022-10-17T22:45:18;94870.09;;;-7.84;77.71
59829;BME280;45708;51.848;107.620;2022-10-17T22:50:20;94867.69;;;-7.63;78.18
59829;BME280;45708;51.848;107.620;2022-10-17T22:55:21;94871.81;;;-7.49;77.19
59829;BME280;45708;51.848;107.620;2022-10-17T23:00:21;94863.06;;;-7.47;77.01
59829;BME280;45708;51.848;107.620;2022-10-17T23:05:22;94861.56;;;-7.38;76.58
59829;BME280;45708;51.848;107.620;2022-10-17T23:10:23;94857.00;;;-7.34;76.52
59829;BME280;45708;51.848;107.620;2022-10-17T23:15:24;94844.66;;;-7.41;76.03
59829;BME280;45708;51.848;107.620;2022-10-17T23:20:26;94843.22;;;-7.22;75.62
59829;BME280;45708;51.848;107.620;2022-10-17T23:25:27;94846.25;;;-7.51;75.50
59829;BME280;45708;51.848;107.620;2022-10-17T23:30:28;94843.13;;;-7.54;76.39
59829;BME280;45708;51.848;107.620;2022-10-17T23:35:31;94836.00;;;-7.51;76.40
59829;BME280;45708;51.848;107.620;2022-10-17T23:40:32;94834.13;;;-7.49;75.60
59829;BME280;45708;51.848;107.620;2022-10-17T23:45:33;94851.19;;;-7.37;76.15
59829;BME280;45708;51.848;107.620;2022-10-17T23:50:34;94838.91;;;-7.22;75.75
59829;BME280;45708;51.848;107.620;2022-10-17T23:55:35;94843.09;;;-7.21;74.97
